Aérodrome :
LOGIN :

S'inscrire | Disclaimer

   EN    FR    IT 

 










Légende :    VFR   VFR Marginal   IFR   IFR Intensif   IFR Très Intensif
Visi : 
Plafond : 
>= 8 km
>= 3000ft
5 à 8 km
1000 à 3000 ft
1500m à 5 km
500 à 1000 ft
800 à 1500m
200 à 500 ft
< 800m
< 200 ft
Symboles :   Orages  Brouillard  Fortes neiges  Fortes précipitations  Vent > 20 kt
SIGMETs :   Divers  Orages  Givrage  Turbulence  Onde Orograph.  Cendres Volcan.






- Altitude de l'aérodrome : 154 ft
- Code IATA : SZZ


EPSC - Szczecin Goleniow

DERNIER METAR :
  • 230800Z 24006KT 4900 -RA BR BKN002 15/15 Q1011

METARs EXPIRÉS :
  • 230730Z 20004KT 180V250 7000 -RA OVC002 16/16 Q1011
  • 230700Z 18004KT 150V220 8000 -RA OVC002 15/15 Q1011
  • 230630Z 18004KT 150V210 7000 OVC002 15/15 Q1011
  • 230600Z 20004KT 6000 -RA OVC002 15/15 Q1011 RESHRA
  • 230530Z 21006KT 180V240 3000 SHRA BR SCT001 OVC003CB 16/15 Q1010
  • 230500Z 14004KT 120V230 2000 SHRA BR SCT001 OVC003CB 17/16 Q1010
  • 230430Z 08006KT 3300 SHRA BR BKN003 OVC004CB 17/17 Q1010
  • 230400Z 10006KT 7000 -DZ SCT004 BKN006 17/16 Q1010

TAF TAF EPSC
Valide du 23 à 06h jusqu'au 24 à 06h UTC


230530Z 2306/2406 15005KT 2000 SHRA BR BKN002 BKN004CB
BECMG 2306/2309 26010KT 9999 NSW BKN020
PROB40 2306/2308 1200 SHRA BR
PROB40
TEMPO 2309/2312 -SHRA SCT020CB
BECMG 2315/2318 VRB02KT
PROB40 2322/2403 3000 BR



MET'MAP, la Météo Aéronautique d'un coup d'oeil ! - Copyright ORBIFLY Décembre 2007 - Disclaimer

ORBIFLY MET'MAP TEAM :

Programmation & Développement : Alexandra Zaïnal
Sur une idée originale de : Baudouin d'Aumeries
Soutien technique & logistique : Manuel Goepfert
Assistance : Marc-Olivier Méhu




SOURCES & CREDITS :

   NOAA